createdAt,value
2018-03-24T00:00:27.136Z,41.8
2018-03-24T00:01:16.904Z,41.8
2018-03-24T00:02:07.620Z,41.8
2018-03-24T00:02:57.580Z,41.8
2018-03-24T00:03:47.574Z,41.8
2018-03-24T00:04:37.681Z,41.8
2018-03-24T00:05:27.721Z,41.8
2018-03-24T00:06:18.051Z,41.8
2018-03-24T00:07:08.309Z,41.8
2018-03-24T00:07:58.678Z,41.8
2018-03-24T00:08:48.166Z,41.8
2018-03-24T00:09:38.196Z,41.9
2018-03-24T00:10:28.542Z,41.9
2018-03-24T00:11:18.619Z,41.9
2018-03-24T00:12:08.406Z,41.9
2018-03-24T00:12:58.441Z,41.9
2018-03-24T00:13:49.059Z,41.9
2018-03-24T00:14:39.126Z,41.9
2018-03-24T00:15:28.403Z,42
2018-03-24T00:16:18.956Z,42
2018-03-24T00:17:09.040Z,42
2018-03-24T00:17:58.592Z,42.1
2018-03-24T00:18:48.918Z,42.1
2018-03-24T00:19:38.906Z,42.1
2018-03-24T00:20:28.385Z,42.1
2018-03-24T00:21:18.340Z,42.1
2018-03-24T00:22:08.977Z,42.1
2018-03-24T00:22:58.641Z,42.2
2018-03-24T00:23:49.294Z,42.2
2018-03-24T00:24:39.230Z,42.2
2018-03-24T00:25:29.389Z,42.2
2018-03-24T00:26:19.285Z,42.3
2018-03-24T00:27:09.725Z,42.3
2018-03-24T00:27:59.275Z,42.3
2018-03-24T00:28:49.382Z,42.3
2018-03-24T00:29:39.957Z,42.4
2018-03-24T00:30:29.640Z,42.4
2018-03-24T00:31:19.149Z,42.4
2018-03-24T00:32:09.795Z,42.4
2018-03-24T00:32:59.630Z,42.5
2018-03-24T00:33:49.688Z,42.5
2018-03-24T00:34:40.210Z,42.6
2018-03-24T00:35:29.753Z,42.6
2018-03-24T00:36:19.555Z,42.6
2018-03-24T00:37:09.375Z,42.7
2018-03-24T00:37:59.968Z,42.7
2018-03-24T00:38:49.960Z,42.7
2018-03-24T00:39:39.984Z,42.8
2018-03-24T00:40:30.335Z,42.8
2018-03-24T00:41:20.110Z,42.8
2018-03-24T00:42:10.424Z,42.8
2018-03-24T00:43:00.710Z,42.9
2018-03-24T00:43:50.513Z,42.9
2018-03-24T00:44:39.719Z,42.9
2018-03-24T00:45:30.351Z,42.9
2018-03-24T00:46:21.017Z,42.9
2018-03-24T00:47:10.779Z,43
2018-03-24T00:48:00.864Z,43
2018-03-24T00:48:50.415Z,43
2018-03-24T00:49:40.678Z,43.1
2018-03-24T00:50:31.367Z,43.1
2018-03-24T00:51:20.654Z,43.1
2018-03-24T00:52:10.071Z,43.1
2018-03-24T00:53:00.897Z,43.1
2018-03-24T00:53:51.222Z,43.2
2018-03-24T00:54:41.281Z,43.2
2018-03-24T00:55:30.852Z,43.3
2018-03-24T00:56:21.230Z,43.3
2018-03-24T00:57:11.274Z,43.3
2018-03-24T00:58:01.024Z,43.3
2018-03-24T00:58:51.381Z,43.3
2018-03-24T00:59:41.637Z,43.3
2018-03-24T01:00:31.417Z,43.4
2018-03-24T01:01:21.269Z,43.4
2018-03-24T01:02:10.586Z,43.4
2018-03-24T01:03:02.425Z,43.4
2018-03-24T01:03:51.893Z,43.4
2018-03-24T01:04:42.048Z,43.4
2018-03-24T01:05:31.320Z,43.5
2018-03-24T01:06:22.348Z,43.5
2018-03-24T01:07:11.453Z,43.5
2018-03-24T01:08:01.512Z,43.5
2018-03-24T01:08:52.528Z,43.5
2018-03-24T01:09:42.324Z,43.6
2018-03-24T01:10:32.127Z,43.6
2018-03-24T01:11:22.130Z,43.6
2018-03-24T01:12:11.385Z,43.6
2018-03-24T01:13:02.363Z,43.6
2018-03-24T01:13:51.822Z,43.6
2018-03-24T01:14:42.058Z,43.7
2018-03-24T01:15:32.721Z,43.7
2018-03-24T01:16:22.593Z,43.7
2018-03-24T01:17:12.416Z,43.8
2018-03-24T01:18:02.364Z,43.8
2018-03-24T01:18:52.928Z,43.8
2018-03-24T01:19:43.070Z,43.8
2018-03-24T01:20:33.607Z,43.8
2018-03-24T01:21:23.644Z,43.8
2018-03-24T01:22:13.437Z,43.9
2018-03-24T01:23:03.496Z,43.9
2018-03-24T01:23:53.847Z,43.9
2018-03-24T01:24:43.906Z,43.9
2018-03-24T01:25:33.947Z,43.9
2018-03-24T01:26:23.736Z,43.9
2018-03-24T01:27:13.526Z,43.9
2018-03-24T01:28:03.830Z,44
2018-03-24T01:28:54.186Z,44
2018-03-24T01:29:43.686Z,44
2018-03-24T01:30:33.706Z,44.1
2018-03-24T01:31:24.082Z,44.1
2018-03-24T01:32:14.474Z,44.1
2018-03-24T01:33:03.934Z,44.1
2018-03-24T01:33:54.261Z,44.1
2018-03-24T01:34:44.611Z,44.1
2018-03-24T01:35:34.397Z,44.2
2018-03-24T01:36:24.431Z,44.2
2018-03-24T01:37:14.476Z,44.3
2018-03-24T01:38:04.516Z,44.3
2018-03-24T01:38:54.024Z,44.3
2018-03-24T01:39:43.955Z,44.4
2018-03-24T01:40:33.942Z,44.4
2018-03-24T01:41:24.269Z,44.4
2018-03-24T01:42:14.564Z,44.4
2018-03-24T01:43:04.188Z,44.5
2018-03-24T01:43:54.366Z,44.5
2018-03-24T01:44:44.423Z,44.5
2018-03-24T01:45:34.789Z,44.6
2018-03-24T01:46:24.832Z,44.6
2018-03-24T01:47:15.180Z,44.6
2018-03-24T01:48:04.974Z,44.6
2018-03-24T01:48:54.881Z,44.6
2018-03-24T01:49:44.573Z,44.7
2018-03-24T01:50:34.292Z,44.7
2018-03-24T01:51:24.890Z,44.7
2018-03-24T01:52:15.026Z,44.8
2018-03-24T01:53:05.028Z,44.8
2018-03-24T01:53:54.848Z,44.8
2018-03-24T01:54:45.016Z,44.8
2018-03-24T01:55:35.182Z,44.8
2018-03-24T01:56:25.397Z,44.9
2018-03-24T01:57:15.284Z,44.9
2018-03-24T01:58:05.341Z,44.9
2018-03-24T01:58:55.503Z,44.9
2018-03-24T01:59:45.463Z,44.9
2018-03-24T02:00:35.528Z,44.9
2018-03-24T02:01:25.483Z,45
2018-03-24T02:02:15.993Z,45
2018-03-24T02:03:05.650Z,45.1
2018-03-24T02:03:55.675Z,45.1
2018-03-24T02:04:45.788Z,45.1
2018-03-24T02:05:36.220Z,45.1
2018-03-24T02:06:25.610Z,45.1
2018-03-24T02:07:15.965Z,45.1
2018-03-24T02:08:06.378Z,45.2
2018-03-24T02:08:55.965Z,45.2
2018-03-24T02:09:46.410Z,45.2
2018-03-24T02:10:36.498Z,45.2
2018-03-24T02:11:25.979Z,45.3
2018-03-24T02:12:16.453Z,45.3
2018-03-24T02:13:06.373Z,45.3
2018-03-24T02:13:56.799Z,45.3
2018-03-24T02:14:45.692Z,45.3
2018-03-24T02:15:36.720Z,45.3
2018-03-24T02:16:27.185Z,45.4
2018-03-24T02:17:16.259Z,45.4
2018-03-24T02:18:06.689Z,45.4
2018-03-24T02:18:56.542Z,45.4
2018-03-24T02:19:46.906Z,45.4
2018-03-24T02:20:37.177Z,45.5
2018-03-24T02:21:26.924Z,45.5
2018-03-24T02:22:16.695Z,45.5
2018-03-24T02:23:07.608Z,45.5
2018-03-24T02:23:57.673Z,45.5
2018-03-24T02:24:47.422Z,45.6
2018-03-24T02:25:37.471Z,45.6
2018-03-24T02:26:28.110Z,45.6
2018-03-24T02:27:18.146Z,45.6
2018-03-24T02:28:07.943Z,45.6
2018-03-24T02:28:58.265Z,45.6
2018-03-24T02:29:47.478Z,45.7
2018-03-24T02:30:37.574Z,45.7
2018-03-24T02:31:27.898Z,45.7
2018-03-24T02:32:17.666Z,45.8
2018-03-24T02:33:07.730Z,45.8
2018-03-24T02:33:57.198Z,45.8
2018-03-24T02:34:48.116Z,46.3
2018-03-24T02:35:37.984Z,46.7
2018-03-24T02:36:27.779Z,47
2018-03-24T02:37:18.116Z,47.3
2018-03-24T02:38:08.066Z,47.6
2018-03-24T02:38:58.474Z,47.8
2018-03-24T02:39:47.329Z,48.1
2018-03-24T02:40:38.660Z,48.3
2018-03-24T02:41:28.194Z,48.6
2018-03-24T02:42:18.929Z,48.9
2018-03-24T02:43:08.729Z,49.2
2018-03-24T02:43:59.075Z,49.4
2018-03-24T02:44:48.250Z,49.8
2018-03-24T02:45:38.608Z,50
2018-03-24T02:46:28.047Z,50.3
2018-03-24T02:47:18.718Z,50.6
2018-03-24T02:48:08.360Z,50.8
2018-03-24T02:48:58.816Z,51.1
2018-03-24T02:49:48.777Z,51.4
2018-03-24T02:50:39.222Z,51.6
2018-03-24T02:51:29.288Z,51.9
2018-03-24T02:52:19.337Z,52.1
2018-03-24T02:53:59.534Z,52.7
2018-03-24T02:54:49.256Z,52.9
2018-03-24T02:55:38.794Z,53.2
2018-03-24T02:56:29.926Z,53.4
2018-03-24T02:57:19.274Z,53.7
2018-03-24T02:58:09.739Z,54
2018-03-24T02:58:59.658Z,54.3
2018-03-24T02:59:49.665Z,54.6
2018-03-24T03:00:40.493Z,54.8
2018-03-24T03:01:28.685Z,55
2018-03-24T03:02:20.083Z,55.3
2018-03-24T03:03:09.584Z,55.6
2018-03-24T03:03:59.704Z,55.8
2018-03-24T03:04:50.252Z,56.1
2018-03-24T03:05:40.310Z,56.3
2018-03-24T03:06:30.362Z,56.6
2018-03-24T03:07:20.464Z,56.8
2018-03-24T03:08:10.188Z,57.1
2018-03-24T03:09:00.593Z,57.3
2018-03-24T03:09:50.593Z,57.6
2018-03-24T03:10:40.649Z,57.6
2018-03-24T03:11:30.731Z,57.7
2018-03-24T03:12:20.763Z,57.9
2018-03-24T03:13:10.318Z,58.2
2018-03-24T03:14:00.865Z,58.4
2018-03-24T03:14:50.966Z,58.6
2018-03-24T03:15:40.421Z,58.9
2018-03-24T03:16:31.021Z,59.1
2018-03-24T03:17:21.128Z,59.4
2018-03-24T03:18:11.151Z,59.4
2018-03-24T03:19:00.922Z,59.4
2018-03-24T03:19:50.319Z,59.7
2018-03-24T03:20:40.560Z,59.9
2018-03-24T03:21:30.826Z,59.9
2018-03-24T03:22:20.397Z,60
2018-03-24T03:23:11.243Z,60.1
2018-03-24T03:24:01.490Z,60.3
2018-03-24T03:24:51.065Z,60.3
2018-03-24T03:25:41.643Z,60.4
2018-03-24T03:26:31.119Z,60.5
2018-03-24T03:27:21.725Z,60.7
2018-03-24T03:28:11.294Z,60.9
2018-03-24T03:29:01.355Z,61.1
2018-03-24T03:29:51.893Z,61.3
2018-03-24T03:30:41.472Z,61.6
2018-03-24T03:31:32.028Z,61.8
2018-03-24T03:32:21.781Z,61.9
2018-03-24T03:33:11.545Z,61.9
2018-03-24T03:34:01.477Z,61.9
2018-03-24T03:34:52.037Z,62.1
2018-03-24T03:35:41.464Z,62.2
2018-03-24T03:36:32.154Z,62.3
2018-03-24T03:37:21.927Z,62.3
2018-03-24T03:38:12.554Z,62.3
2018-03-24T03:39:02.141Z,62.3
2018-03-24T03:39:52.169Z,62.3
2018-03-24T03:40:42.619Z,62.4
2018-03-24T03:41:32.682Z,62.4
2018-03-24T03:42:22.609Z,62.4
2018-03-24T03:43:11.440Z,62.4
2018-03-24T03:44:01.772Z,62.4
2018-03-24T03:44:53.210Z,62.4
2018-03-24T03:45:43.242Z,62.4
2018-03-24T03:46:32.827Z,62.4
2018-03-24T03:47:23.414Z,62.4
2018-03-24T03:48:12.894Z,62.4
2018-03-24T03:49:02.646Z,62.4
2018-03-24T03:49:53.169Z,62.4
2018-03-24T03:50:43.604Z,62.4
2018-03-24T03:51:33.408Z,62.4
2018-03-24T03:52:22.528Z,62.4
2018-03-24T03:53:13.375Z,62.3
2018-03-24T03:54:02.928Z,62.3
2018-03-24T03:54:53.112Z,62.3
2018-03-24T03:55:42.878Z,62.3
2018-03-24T03:56:33.721Z,62.3
2018-03-24T03:57:23.584Z,62.3
2018-03-24T03:58:13.638Z,62.3
2018-03-24T03:59:03.574Z,62.3
2018-03-24T03:59:53.769Z,62.3
2018-03-24T04:00:43.598Z,62.3
2018-03-24T04:01:34.363Z,62.3
2018-03-24T04:02:23.418Z,62.3
2018-03-24T04:03:13.971Z,62.3
2018-03-24T04:04:04.517Z,62.3
2018-03-24T04:04:53.518Z,62.3
2018-03-24T04:05:43.172Z,62.2
2018-03-24T04:06:33.985Z,62.2
2018-03-24T04:07:23.950Z,62.2
2018-03-24T04:08:14.323Z,62.2
2018-03-24T04:09:05.158Z,62.2
2018-03-24T04:09:54.215Z,62.2
2018-03-24T04:10:45.085Z,62.2
2018-03-24T04:11:34.543Z,62.1
2018-03-24T04:12:24.118Z,62.1
2018-03-24T04:13:14.731Z,62.1
2018-03-24T04:14:04.410Z,62.1
2018-03-24T04:14:54.388Z,62.1
2018-03-24T04:15:45.020Z,62.1
2018-03-24T04:16:35.092Z,62.1
2018-03-24T04:17:24.738Z,62.1
2018-03-24T04:18:14.897Z,62.1
2018-03-24T04:19:05.566Z,62.1
2018-03-24T04:19:54.729Z,62.1
2018-03-24T04:20:44.674Z,62.1
2018-03-24T04:21:35.022Z,62.1
2018-03-24T04:22:25.184Z,62.1
2018-03-24T04:23:15.805Z,62
2018-03-24T04:24:05.302Z,62.1
2018-03-24T04:24:55.771Z,62
2018-03-24T04:25:45.849Z,62
2018-03-24T04:26:36.002Z,62
2018-03-24T04:27:25.647Z,62
2018-03-24T04:28:15.475Z,62
2018-03-24T04:29:06.041Z,62
2018-03-24T04:29:55.718Z,61.9
2018-03-24T04:30:45.841Z,61.9
2018-03-24T04:31:36.410Z,61.9
2018-03-24T04:32:26.474Z,61.9
2018-03-24T04:33:16.324Z,61.9
2018-03-24T04:34:06.099Z,61.9
2018-03-24T04:34:55.459Z,61.9
2018-03-24T04:35:46.174Z,61.9
2018-03-24T04:36:35.853Z,61.9
2018-03-24T04:37:26.191Z,61.9
2018-03-24T04:38:16.556Z,61.9
2018-03-24T04:39:06.599Z,61.9
2018-03-24T04:39:57.216Z,61.9
2018-03-24T04:40:47.282Z,61.9
2018-03-24T04:41:37.346Z,61.9
2018-03-24T04:42:27.109Z,61.8
2018-03-24T04:43:17.490Z,61.9
2018-03-24T04:44:07.510Z,61.8
2018-03-24T04:44:57.574Z,61.8
2018-03-24T04:45:47.047Z,61.8
2018-03-24T04:46:37.665Z,61.8
2018-03-24T04:47:27.791Z,61.8
2018-03-24T04:48:17.824Z,61.8
2018-03-24T04:49:07.541Z,61.8
2018-03-24T04:49:57.623Z,61.8
2018-03-24T04:50:47.968Z,61.8
2018-03-24T04:51:38.087Z,61.8
2018-03-24T04:52:27.784Z,61.8
2018-03-24T04:53:18.168Z,61.8
2018-03-24T04:54:07.913Z,61.8
2018-03-24T04:54:57.952Z,61.7
2018-03-24T04:55:47.731Z,61.7
2018-03-24T04:56:37.774Z,61.7
2018-03-24T04:57:28.389Z,61.7
2018-03-24T04:58:17.920Z,61.7
2018-03-24T04:59:07.975Z,61.7
2018-03-24T04:59:58.320Z,61.7
2018-03-24T05:00:48.235Z,61.7
2018-03-24T05:01:37.568Z,61.7
2018-03-24T05:02:28.502Z,61.6
2018-03-24T05:03:18.582Z,61.6
2018-03-24T05:04:08.062Z,61.6
2018-03-24T05:04:58.643Z,61.6
2018-03-24T05:05:48.471Z,61.6
2018-03-24T05:06:38.563Z,61.6
2018-03-24T05:07:28.853Z,61.6
2018-03-24T05:08:18.597Z,61.6
2018-03-24T05:09:09.211Z,61.6
2018-03-24T05:09:59.014Z,61.6
2018-03-24T05:10:48.793Z,61.6
2018-03-24T05:11:39.364Z,61.6
2018-03-24T05:12:28.684Z,61.6
2018-03-24T05:13:19.033Z,61.5
2018-03-24T05:14:09.281Z,61.6
2018-03-24T05:14:58.837Z,61.6
2018-03-24T05:15:48.334Z,61.5
2018-03-24T05:16:39.200Z,61.5
2018-03-24T05:17:29.077Z,61.5
2018-03-24T05:18:18.782Z,61.5
2018-03-24T05:19:08.869Z,61.5
2018-03-24T05:19:58.878Z,61.5
2018-03-24T05:20:49.246Z,61.5
2018-03-24T05:21:39.312Z,61.4
2018-03-24T05:22:29.641Z,61.4
2018-03-24T05:23:19.134Z,61.4
2018-03-24T05:24:09.764Z,61.4
2018-03-24T05:24:59.546Z,61.4
2018-03-24T05:25:50.343Z,61.4
2018-03-24T05:26:40.143Z,61.4
2018-03-24T05:27:29.993Z,61.4
2018-03-24T05:28:20.053Z,61.4
2018-03-24T05:29:09.298Z,61.4
2018-03-24T05:29:59.851Z,61.4
2018-03-24T05:30:50.411Z,61.4
2018-03-24T05:31:40.181Z,61.4
2018-03-24T05:32:30.794Z,61.4
2018-03-24T05:33:20.857Z,61.3
2018-03-24T05:34:10.643Z,61.4
2018-03-24T05:35:00.716Z,61.3
2018-03-24T05:35:50.781Z,61.3
2018-03-24T05:36:40.828Z,61.3
2018-03-24T05:37:31.180Z,61.3
2018-03-24T05:38:20.969Z,61.3
2018-03-24T05:39:11.104Z,61.3
2018-03-24T05:40:01.042Z,61.3
2018-03-24T05:40:50.573Z,61.3
2018-03-24T05:41:41.419Z,61.3
2018-03-24T05:42:30.460Z,61.3
2018-03-24T05:43:20.979Z,61.3
2018-03-24T05:44:11.351Z,61.3
2018-03-24T05:45:01.391Z,61.3
2018-03-24T05:45:51.139Z,61.3
2018-03-24T05:46:41.501Z,61.2
2018-03-24T05:47:31.550Z,61.2
2018-03-24T05:48:21.642Z,61.3
2018-03-24T05:49:11.377Z,61.2
2018-03-24T05:50:01.454Z,61.2
2018-03-24T05:50:51.491Z,61.2
2018-03-24T05:51:41.583Z,61.2
2018-03-24T05:52:31.892Z,61.2
2018-03-24T05:53:21.950Z,61.1
2018-03-24T05:54:12.308Z,61.1
2018-03-24T05:55:02.057Z,61.1
2018-03-24T05:55:51.652Z,61.1
2018-03-24T05:56:41.226Z,61.1
2018-03-24T05:57:32.542Z,61.1
2018-03-24T05:58:21.999Z,61.1
2018-03-24T05:59:12.611Z,61.1
2018-03-24T06:00:02.458Z,61.1
2018-03-24T06:00:52.713Z,61.1
2018-03-24T06:01:42.789Z,61.1
2018-03-24T06:02:32.886Z,61.1
2018-03-24T06:03:22.969Z,61.1
2018-03-24T06:04:12.989Z,61.1
2018-03-24T06:05:02.763Z,61.1
2018-03-24T06:05:52.806Z,61
2018-03-24T06:06:43.136Z,61
2018-03-24T06:07:32.898Z,61
2018-03-24T06:08:22.964Z,61
2018-03-24T06:09:13.011Z,61
2018-03-24T06:10:03.113Z,60.9
2018-03-24T06:10:52.845Z,61
2018-03-24T06:11:43.193Z,60.9
2018-03-24T06:12:33.563Z,60.9
2018-03-24T06:13:23.325Z,60.9
2018-03-24T06:14:13.407Z,60.9
2018-03-24T06:15:03.698Z,60.9
2018-03-24T06:15:53.521Z,60.9
2018-03-24T06:16:43.512Z,60.9
2018-03-24T06:17:33.885Z,60.9
2018-03-24T06:18:23.949Z,60.9
2018-03-24T06:19:14.003Z,60.8
2018-03-24T06:20:03.479Z,60.8
2018-03-24T06:20:54.080Z,60.8
2018-03-24T06:21:44.007Z,60.8
2018-03-24T06:22:33.936Z,60.8
2018-03-24T06:23:24.266Z,60.8
2018-03-24T06:24:14.065Z,60.8
2018-03-24T06:25:04.383Z,60.8
2018-03-24T06:25:54.218Z,60.7
2018-03-24T06:26:44.228Z,60.7
2018-03-24T06:27:34.624Z,60.7
2018-03-24T06:28:24.601Z,60.7
2018-03-24T06:29:14.701Z,60.6
2018-03-24T06:30:04.441Z,60.6
2018-03-24T06:30:54.774Z,60.6
2018-03-24T06:31:44.556Z,60.6
2018-03-24T06:32:34.626Z,60.6
2018-03-24T06:33:24.970Z,60.6
2018-03-24T06:34:14.485Z,60.6
2018-03-24T06:35:04.559Z,60.6
2018-03-24T06:35:54.841Z,60.5
2018-03-24T06:36:45.178Z,60.5
2018-03-24T06:37:35.221Z,60.5
2018-03-24T06:38:25.393Z,60.4
2018-03-24T06:39:14.786Z,60.4
2018-03-24T06:40:05.126Z,60.4
2018-03-24T06:40:55.393Z,60.4
2018-03-24T06:41:45.243Z,60.4
2018-03-24T06:42:35.126Z,60.4
2018-03-24T06:43:25.365Z,60.4
2018-03-24T06:44:15.126Z,60.4
2018-03-24T06:45:05.756Z,60.4
2018-03-24T06:45:55.818Z,60.3
2018-03-24T06:46:45.098Z,60.3
2018-03-24T06:47:35.945Z,60.3
2018-03-24T06:48:25.701Z,60.3
2018-03-24T06:49:16.109Z,60.3
2018-03-24T06:50:06.085Z,60.3
2018-03-24T06:50:56.195Z,60.3
2018-03-24T06:51:45.627Z,60.3
2018-03-24T06:52:35.970Z,60.2
2018-03-24T06:53:26.327Z,60.2
2018-03-24T06:54:15.898Z,60.2
2018-03-24T06:55:06.162Z,60.2
2018-03-24T06:55:56.229Z,60.2
2018-03-24T06:56:46.240Z,60.2
2018-03-24T06:57:36.323Z,60.1
2018-03-24T06:58:26.374Z,60.1
2018-03-24T06:59:16.457Z,60.1
2018-03-24T07:00:06.782Z,60.1
2018-03-24T07:00:56.357Z,60.1
2018-03-24T07:01:46.382Z,60.1
2018-03-24T07:02:36.639Z,60.1
2018-03-24T07:03:26.716Z,60.1
2018-03-24T07:04:16.768Z,60.1
2018-03-24T07:05:06.820Z,60
2018-03-24T07:05:57.152Z,60
2018-03-24T07:06:47.229Z,60
2018-03-24T07:07:37.282Z,60
2018-03-24T07:08:27.318Z,60
2018-03-24T07:09:17.108Z,59.9
2018-03-24T07:10:07.424Z,59.9
2018-03-24T07:10:57.490Z,59.9
2018-03-24T07:11:47.281Z,59.9
2018-03-24T07:12:37.331Z,59.9
2018-03-24T07:13:27.728Z,59.9
2018-03-24T07:14:17.436Z,59.9
2018-03-24T07:15:07.544Z,59.8
2018-03-24T07:15:57.559Z,59.8
2018-03-24T07:16:47.892Z,59.8
2018-03-24T07:17:37.664Z,59.8
2018-03-24T07:18:28.006Z,59.8
2018-03-24T07:19:17.788Z,59.8
2018-03-24T07:20:07.882Z,59.8
2018-03-24T07:20:58.165Z,59.8
2018-03-24T07:21:47.955Z,59.8
2018-03-24T07:22:37.746Z,59.7
2018-03-24T07:23:28.346Z,59.7
2018-03-24T07:24:18.388Z,59.6
2018-03-24T07:25:08.473Z,59.6
2018-03-24T07:25:58.567Z,59.6
2018-03-24T07:26:48.320Z,59.5
2018-03-24T07:27:38.713Z,59.5
2018-03-24T07:28:28.750Z,59.5
2018-03-24T07:29:18.496Z,59.5
2018-03-24T07:30:08.813Z,59.4
2018-03-24T07:30:58.380Z,59.4
2018-03-24T07:31:48.927Z,59.4
2018-03-24T07:32:39.024Z,59.4
2018-03-24T07:33:29.021Z,59.4
2018-03-24T07:34:18.840Z,59.3
2018-03-24T07:35:08.625Z,59.3
2018-03-24T07:35:59.197Z,59.3
2018-03-24T07:36:48.836Z,59.3
2018-03-24T07:37:38.590Z,59.3
2018-03-24T07:38:28.594Z,59.3
2018-03-24T07:39:19.453Z,59.3
2018-03-24T07:40:09.476Z,59.2
2018-03-24T07:40:58.969Z,59.2
2018-03-24T07:41:49.307Z,59.2
2018-03-24T07:42:39.643Z,59.1
2018-03-24T07:43:29.713Z,59.1
2018-03-24T07:44:19.476Z,59.1
2018-03-24T07:45:09.550Z,59.1
2018-03-24T07:45:59.887Z,59.1
2018-03-24T07:46:49.750Z,59.1
2018-03-24T07:47:40.063Z,59
2018-03-24T07:48:29.490Z,59
2018-03-24T07:49:19.924Z,59
2018-03-24T07:50:09.598Z,59
2018-03-24T07:51:00.306Z,58.9
2018-03-24T07:51:50.251Z,58.9
2018-03-24T07:52:40.101Z,58.9
2018-03-24T07:53:30.384Z,58.9
2018-03-24T07:54:20.154Z,58.9
2018-03-24T07:55:10.235Z,58.9
2018-03-24T07:56:00.279Z,58.9
2018-03-24T07:56:50.321Z,58.9
2018-03-24T07:57:40.392Z,58.8
2018-03-24T07:58:29.833Z,58.8
2018-03-24T07:59:20.791Z,58.8
2018-03-24T08:00:10.843Z,58.8
2018-03-24T08:01:00.919Z,58.8
2018-03-24T08:01:50.955Z,58.8
2018-03-24T08:02:40.992Z,58.7
2018-03-24T08:03:31.065Z,58.7
2018-03-24T08:04:21.296Z,58.7
2018-03-24T08:05:10.936Z,58.7
2018-03-24T08:06:00.936Z,58.6
2018-03-24T08:06:51.037Z,58.6
2018-03-24T08:07:41.470Z,58.6
2018-03-24T08:11:01.640Z,58.5
2018-03-24T08:11:51.353Z,58.5
2018-03-24T08:12:41.392Z,58.5
2018-03-24T08:13:31.478Z,58.4
2018-03-24T08:14:21.501Z,58.4
2018-03-24T08:15:11.845Z,58.4
2018-03-24T08:16:01.613Z,58.4
2018-03-24T08:16:50.473Z,58.4
2018-03-24T08:17:40.704Z,58.4
2018-03-24T08:18:31.725Z,58.4
2018-03-24T08:19:20.695Z,58.3
2018-03-24T08:20:11.353Z,58.3
2018-03-24T08:21:01.235Z,58.3
2018-03-24T08:21:51.728Z,58.3
2018-03-24T08:22:41.043Z,58.3
2018-03-24T08:23:31.689Z,58.3
2018-03-24T08:24:21.715Z,58.3
2018-03-24T08:25:12.273Z,58.2
2018-03-24T08:26:01.857Z,58.2
2018-03-24T08:26:51.597Z,58.2
2018-03-24T08:27:41.670Z,58.1
2018-03-24T08:28:32.517Z,58.1
2018-03-24T08:29:21.571Z,58.1
2018-03-24T08:30:11.919Z,58.1
2018-03-24T08:31:02.474Z,58.1
2018-03-24T08:31:52.459Z,58.1
2018-03-24T08:32:42.190Z,58.1
2018-03-24T08:33:32.153Z,58
2018-03-24T08:34:22.720Z,58
2018-03-24T08:35:12.665Z,58
2018-03-24T08:36:02.437Z,57.9
2018-03-24T08:36:52.394Z,57.9
2018-03-24T08:37:42.867Z,57.9
2018-03-24T08:38:32.402Z,57.9
2018-03-24T08:39:23.020Z,57.9
2018-03-24T08:40:12.809Z,57.9
2018-03-24T08:41:02.782Z,57.9
2018-03-24T08:41:52.837Z,57.8
2018-03-24T08:42:43.469Z,57.8
2018-03-24T08:43:33.321Z,57.8
2018-03-24T08:44:23.076Z,57.8
2018-03-24T08:47:43.328Z,57.7
2018-03-24T08:48:32.796Z,57.7
2018-03-24T08:49:23.218Z,57.7
2018-03-24T08:50:13.394Z,57.6
2018-03-24T08:51:03.267Z,57.6
2018-03-24T08:51:53.686Z,57.6
2018-03-24T08:52:43.353Z,57.6
2018-03-24T08:53:34.203Z,57.6
2018-03-24T08:54:23.553Z,57.6
2018-03-24T08:55:13.734Z,57.6
2018-03-24T08:56:03.358Z,57.5
2018-03-24T08:56:54.145Z,57.5
2018-03-24T08:57:43.898Z,57.5
2018-03-24T08:58:33.948Z,57.5
2018-03-24T08:59:24.013Z,57.4
2018-03-24T09:00:13.853Z,57.4
2018-03-24T09:01:04.706Z,57.4
2018-03-24T09:01:53.960Z,57.4
2018-03-24T09:02:44.210Z,57.4
2018-03-24T09:03:34.096Z,57.4
2018-03-24T09:04:23.757Z,57.4
2018-03-24T09:05:14.095Z,57.3
2018-03-24T09:06:04.555Z,57.3
2018-03-24T09:06:55.170Z,57.3
2018-03-24T09:07:44.288Z,57.3
2018-03-24T09:08:34.905Z,57.3
2018-03-24T09:09:24.702Z,57.3
2018-03-24T09:10:14.543Z,57.2
2018-03-24T09:11:05.362Z,57.2
2018-03-24T09:11:54.854Z,57.2
2018-03-24T09:12:44.706Z,57.2
2018-03-24T09:13:34.657Z,57.1
2018-03-24T09:14:25.307Z,57.1
2018-03-24T09:15:15.389Z,57.1
2018-03-24T09:16:05.227Z,57.1
2018-03-24T09:16:55.567Z,57.1
2018-03-24T09:17:45.334Z,57.1
2018-03-24T09:18:36.162Z,57.1
2018-03-24T09:19:25.350Z,57
2018-03-24T09:20:16.003Z,57
2018-03-24T09:21:05.900Z,57
2018-03-24T09:21:55.342Z,56.9
2018-03-24T09:22:45.685Z,56.9
2018-03-24T09:23:35.532Z,56.9
2018-03-24T09:24:25.055Z,56.9
2018-03-24T09:25:15.523Z,56.9
2018-03-24T09:26:06.362Z,56.9
2018-03-24T09:26:56.157Z,56.9
2018-03-24T09:27:46.220Z,56.8
2018-03-24T09:28:35.679Z,56.8
2018-03-24T09:29:26.920Z,56.8
2018-03-24T09:30:16.652Z,56.8
2018-03-24T09:31:06.434Z,56.8
2018-03-24T09:31:55.999Z,56.8
2018-03-24T09:32:46.825Z,56.8
2018-03-24T09:33:35.534Z,56.7
2018-03-24T09:34:26.524Z,56.7
2018-03-24T09:35:16.509Z,56.7
2018-03-24T09:36:07.069Z,56.6
2018-03-24T09:36:56.246Z,56.6
2018-03-24T09:37:45.919Z,56.6
2018-03-24T09:38:36.960Z,56.6
2018-03-24T09:39:26.523Z,56.6
2018-03-24T09:40:16.944Z,56.6
2018-03-24T09:41:06.971Z,56.6
2018-03-24T09:41:56.892Z,56.6
2018-03-24T09:42:47.219Z,56.5
2018-03-24T09:43:37.006Z,56.5
2018-03-24T09:44:26.755Z,56.5
2018-03-24T09:45:17.121Z,56.4
2018-03-24T09:46:06.863Z,56.4
2018-03-24T09:46:57.206Z,56.4
2018-03-24T09:47:47.576Z,56.4
2018-03-24T09:48:36.638Z,56.4
2018-03-24T09:49:27.471Z,56.4
2018-03-24T17:51:49.311Z,48.6
2018-03-24T17:52:39.637Z,48.6
2018-03-24T17:53:29.221Z,48.6
2018-03-24T17:54:19.586Z,48.5
2018-03-24T17:55:09.809Z,48.5
2018-03-24T17:55:59.592Z,48.5
2018-03-24T17:56:49.952Z,48.5
2018-03-24T17:57:39.468Z,48.5
2018-03-24T17:58:29.183Z,48.5
2018-03-24T17:59:19.622Z,48.4
2018-03-24T18:00:09.975Z,48.4
2018-03-24T18:00:59.630Z,48.4
2018-03-24T18:01:49.709Z,48.4
2018-03-24T18:02:40.029Z,48.4
2018-03-24T18:03:29.672Z,48.4
2018-03-24T18:04:20.725Z,48.4
2018-03-24T18:05:10.002Z,48.4
2018-03-24T18:06:00.566Z,48.4
2018-03-24T18:06:50.216Z,48.4
2018-03-24T18:07:40.941Z,48.4
2018-03-24T18:08:30.413Z,48.4
2018-03-24T18:09:20.769Z,48.4
2018-03-24T18:10:10.945Z,48.4
2018-03-24T18:11:00.609Z,48.3
2018-03-24T18:11:51.217Z,48.3
2018-03-24T18:12:41.540Z,48.3
2018-03-24T18:13:30.563Z,48.3
2018-03-24T18:14:20.920Z,48.3
2018-03-24T18:15:10.966Z,48.3
2018-03-24T18:16:01.269Z,48.3
2018-03-24T18:16:51.351Z,48.3
2018-03-24T18:17:41.117Z,48.3
2018-03-24T18:18:31.484Z,48.3
2018-03-24T18:19:21.506Z,48.3
2018-03-24T18:20:11.596Z,48.3
2018-03-24T18:21:01.070Z,48.3
2018-03-24T18:21:51.409Z,48.2
2018-03-24T18:22:41.734Z,48.2
2018-03-24T18:23:31.804Z,48.2
2018-03-24T18:24:21.598Z,48.2
2018-03-24T18:25:11.645Z,48.1
2018-03-24T18:26:01.719Z,48.2
2018-03-24T18:26:52.523Z,48.1
2018-03-24T18:27:42.083Z,48.1
2018-03-24T18:28:31.276Z,48.1
2018-03-24T18:29:21.635Z,48.1
2018-03-24T18:30:11.687Z,48.1
2018-03-24T18:31:02.052Z,48.1
2018-03-24T18:31:52.378Z,48.1
2018-03-24T18:32:42.141Z,48.1
2018-03-24T18:33:32.473Z,48.1
2018-03-24T18:34:22.260Z,48.1
2018-03-24T18:35:13.073Z,48.1
2018-03-24T18:36:01.822Z,48.1
2018-03-24T18:36:51.057Z,48.1
2018-03-24T18:37:41.874Z,48.1
2018-03-24T18:38:32.737Z,48.1
2018-03-24T18:39:22.810Z,48
2018-03-24T18:40:12.384Z,48
2018-03-24T18:41:02.238Z,48
2018-03-24T18:41:51.904Z,48
2018-03-24T18:42:41.950Z,48
2018-03-24T18:43:32.816Z,47.9
2018-03-24T18:44:23.224Z,48
2018-03-24T18:45:13.221Z,47.9
2018-03-24T18:46:03.252Z,47.9
2018-03-24T18:46:53.335Z,47.9
2018-03-24T18:47:43.709Z,47.9
2018-03-24T18:48:33.253Z,47.9
2018-03-24T18:49:23.575Z,47.9
2018-03-24T18:50:14.110Z,47.9
2018-03-24T18:51:04.137Z,47.9
2018-03-24T18:51:53.956Z,47.8
2018-03-24T18:52:44.308Z,47.8
2018-03-24T18:53:34.312Z,47.8
2018-03-24T18:54:23.624Z,47.8
2018-03-24T18:55:14.148Z,47.8
2018-03-24T18:56:04.480Z,47.8
2018-03-24T18:56:54.531Z,47.8
2018-03-24T18:57:44.593Z,47.8
2018-03-24T18:58:34.656Z,47.8
2018-03-24T18:59:24.687Z,47.8
2018-03-24T19:00:14.492Z,47.8
2018-03-24T19:01:04.862Z,47.8
2018-03-24T19:01:54.591Z,47.8
2018-03-24T19:02:44.653Z,47.8
2018-03-24T19:03:34.419Z,47.8
2018-03-24T19:04:25.046Z,47.8
2018-03-24T19:05:15.350Z,47.8
2018-03-24T19:06:05.158Z,47.8
2018-03-24T19:06:55.202Z,47.8
2018-03-24T19:07:45.263Z,47.8
2018-03-24T19:08:35.050Z,47.8
2018-03-24T19:09:25.360Z,47.8
2018-03-24T19:10:15.143Z,47.8
2018-03-24T19:11:05.540Z,47.8
2018-03-24T19:11:55.567Z,47.8
2018-03-24T19:12:45.599Z,47.8
2018-03-24T19:13:35.269Z,47.8
2018-03-24T19:14:25.758Z,47.8
2018-03-24T19:15:15.777Z,47.8
2018-03-24T19:16:05.880Z,47.8